createdAt,value
2023-02-11T00:02:31.302Z,87.60
2023-02-11T00:05:41.727Z,88.16
2023-02-11T00:09:09.891Z,88.76
2023-02-11T00:12:37.790Z,89.76
2023-02-11T00:16:06.168Z,89.47
2023-02-11T00:19:33.967Z,88.58
2023-02-11T00:22:49.746Z,89.55
2023-02-11T00:26:18.036Z,89.00
2023-02-11T00:29:45.784Z,88.90
2023-02-11T00:33:13.865Z,90.48
2023-02-11T00:36:41.529Z,91.81
2023-02-11T00:39:31.337Z,92.20
2023-02-11T00:42:59.254Z,90.92
2023-02-11T00:46:27.196Z,91.12
2023-02-11T00:49:54.877Z,91.00
2023-02-11T00:53:22.936Z,91.69
2023-02-11T00:56:50.709Z,92.87
2023-02-11T01:00:00.630Z,93.72
2023-02-11T01:03:28.516Z,94.46
2023-02-11T01:06:56.724Z,94.32
2023-02-11T01:10:24.554Z,94.62
2023-02-11T01:13:52.533Z,95.06
2023-02-11T01:17:20.354Z,95.63
2023-02-11T01:20:48.091Z,95.85
2023-02-11T01:24:15.852Z,95.54
2023-02-11T01:27:24.454Z,95.63
2023-02-11T01:30:52.619Z,95.16
2023-02-11T01:34:20.282Z,95.61
2023-02-11T01:37:48.237Z,94.36
2023-02-11T01:40:36.477Z,93.21
2023-02-11T01:43:44.992Z,93.28
2023-02-11T01:47:14.265Z,93.28
2023-02-11T01:50:22.660Z,92.61
2023-02-11T01:53:50.305Z,92.28
2023-02-11T01:57:18.345Z,92.49
2023-02-11T02:00:46.172Z,92.40
2023-02-11T02:04:13.933Z,92.23
2023-02-11T02:07:41.610Z,93.83
2023-02-11T02:11:09.838Z,93.84
2023-02-11T02:14:37.604Z,92.58
2023-02-11T02:18:05.476Z,91.21
2023-02-11T02:21:33.655Z,92.31
2023-02-11T02:25:01.733Z,96.03
2023-02-11T02:28:29.509Z,95.83
2023-02-11T02:31:57.375Z,94.30
2023-02-11T02:35:25.173Z,97.08
2023-02-11T02:38:33.973Z,97.53
2023-02-11T02:42:02.469Z,94.96
2023-02-11T02:45:30.239Z,97.01
2023-02-11T02:48:58.389Z,96.81
2023-02-11T02:52:26.155Z,97.73
2023-02-11T02:55:35.799Z,97.55
2023-02-11T02:58:46.983Z,97.69
2023-02-11T03:02:12.012Z,98.03
2023-02-11T03:05:40.051Z,97.83
2023-02-11T03:08:29.530Z,98.24
2023-02-11T03:11:57.222Z,98.93
2023-02-11T03:15:05.357Z,97.38
2023-02-11T03:18:33.478Z,97.48
2023-02-11T03:22:01.267Z,96.54
2023-02-11T03:25:29.182Z,98.35
2023-02-11T03:28:56.975Z,99.00
2023-02-11T03:32:25.002Z,98.26
2023-02-11T03:35:52.802Z,99.94
2023-02-11T03:39:20.897Z,99.18
2023-02-11T03:42:48.631Z,98.30
2023-02-11T03:46:16.763Z,100.00
2023-02-11T03:49:44.898Z,100.00
2023-02-11T03:53:13.069Z,100.00
2023-02-11T03:56:41.174Z,100.00
2023-02-11T04:00:09.048Z,100.00
2023-02-11T04:03:17.990Z,100.00
2023-02-11T04:06:45.855Z,100.00
2023-02-11T04:10:13.526Z,100.00
2023-02-11T04:13:41.307Z,100.00
2023-02-11T04:17:09.735Z,100.00
2023-02-11T04:20:37.549Z,100.00
2023-02-11T04:24:05.364Z,100.00
2023-02-11T04:27:33.196Z,100.00
2023-02-11T04:31:00.861Z,100.00
2023-02-11T04:34:28.542Z,100.00
2023-02-11T04:37:56.512Z,100.00
2023-02-11T04:41:24.393Z,100.00
2023-02-11T04:44:52.152Z,100.00
2023-02-11T04:48:19.920Z,100.00
2023-02-11T04:51:28.368Z,100.00
2023-02-11T04:54:56.288Z,100.00
2023-02-11T04:58:24.115Z,100.00
2023-02-11T05:01:52.602Z,100.00
2023-02-11T05:05:20.443Z,100.00
2023-02-11T05:08:48.237Z,100.00
2023-02-11T05:12:16.073Z,100.00
2023-02-11T05:15:43.707Z,100.00
2023-02-11T05:19:11.536Z,100.00
2023-02-11T05:22:39.206Z,100.00
2023-02-11T05:26:07.090Z,100.00
2023-02-11T05:29:35.074Z,100.00
2023-02-11T05:33:02.936Z,100.00
2023-02-11T05:36:33.324Z,100.00
2023-02-11T05:39:58.679Z,100.00
2023-02-11T05:43:26.280Z,100.00
2023-02-11T05:46:54.295Z,100.00
2023-02-11T05:50:22.809Z,100.00
2023-02-11T05:53:50.987Z,100.00
2023-02-11T05:57:18.768Z,100.00
2023-02-11T06:00:46.752Z,100.00
2023-02-11T06:04:14.613Z,100.00
2023-02-11T06:07:42.493Z,100.00
2023-02-11T06:11:11.350Z,100.00
2023-02-11T06:14:39.260Z,100.00
2023-02-11T06:18:07.034Z,100.00
2023-02-11T06:21:43.287Z,100.00
2023-02-11T06:25:02.912Z,100.00
2023-02-11T06:28:11.846Z,100.00
2023-02-11T06:31:40.053Z,100.00
2023-02-11T06:35:09.991Z,100.00
2023-02-11T06:38:35.374Z,100.00
2023-02-11T06:42:03.208Z,100.00
2023-02-11T06:45:31.183Z,100.00
2023-02-11T06:48:59.244Z,100.00
2023-02-11T06:52:27.663Z,100.00
2023-02-11T06:55:35.552Z,100.00
2023-02-11T06:59:03.324Z,100.00
2023-02-11T07:02:31.308Z,100.00
2023-02-11T07:05:59.049Z,100.00
2023-02-11T07:09:26.741Z,100.00
2023-02-11T07:12:56.481Z,100.00
2023-02-11T07:16:23.106Z,100.00
2023-02-11T07:19:51.285Z,99.94
2023-02-11T07:23:19.162Z,99.97
2023-02-11T07:26:47.008Z,99.87
2023-02-11T07:30:15.134Z,100.00
2023-02-11T07:33:43.007Z,100.00
2023-02-11T07:37:11.472Z,100.00
2023-02-11T07:40:39.367Z,99.27
2023-02-11T07:44:07.491Z,98.97
2023-02-11T07:47:16.352Z,98.24
2023-02-11T07:50:44.691Z,96.85
2023-02-11T07:54:12.506Z,95.85
2023-02-11T07:57:40.282Z,96.76
2023-02-11T08:01:08.123Z,95.92
2023-02-11T08:03:56.381Z,95.18
2023-02-11T08:07:24.703Z,94.42
2023-02-11T08:10:52.907Z,96.21
2023-02-11T08:14:20.726Z,97.45
2023-02-11T08:17:29.287Z,93.66
2023-02-11T08:20:38.545Z,90.12
2023-02-11T08:24:06.448Z,89.64
2023-02-11T08:27:34.465Z,88.43
2023-02-11T08:31:02.288Z,88.71
2023-02-11T08:34:11.859Z,87.80
2023-02-11T08:37:20.384Z,86.98
2023-02-11T08:40:48.213Z,87.57
2023-02-11T08:44:16.581Z,85.99
2023-02-11T08:47:44.361Z,84.53
2023-02-11T08:51:12.424Z,83.82
2023-02-11T08:54:40.461Z,84.15
2023-02-11T08:57:49.163Z,83.60
2023-02-11T09:01:17.529Z,84.29
2023-02-11T09:04:45.682Z,82.28
2023-02-11T09:08:13.528Z,81.77
2023-02-11T09:11:41.341Z,82.18
2023-02-11T09:15:09.190Z,80.65
2023-02-11T09:18:36.881Z,78.22
2023-02-11T09:22:04.819Z,77.64
2023-02-11T09:25:32.648Z,77.25
2023-02-11T09:29:00.681Z,77.15
2023-02-11T09:32:28.490Z,76.57
2023-02-11T09:35:56.208Z,74.75
2023-02-11T09:39:23.982Z,74.09
2023-02-11T09:42:52.088Z,72.46
2023-02-11T09:46:19.871Z,72.27
2023-02-11T09:49:47.565Z,71.14
2023-02-11T09:52:56.687Z,70.97
2023-02-11T09:56:24.584Z,69.93
2023-02-11T09:59:52.496Z,69.96
2023-02-11T10:03:00.471Z,69.87
2023-02-11T10:06:12.333Z,68.39
2023-02-11T10:09:40.112Z,69.23
2023-02-11T10:12:28.268Z,68.30
2023-02-11T10:15:56.155Z,68.03
2023-02-11T10:19:24.165Z,67.74
2023-02-11T10:22:33.147Z,68.14
2023-02-11T10:26:01.200Z,66.40
2023-02-11T10:29:09.679Z,65.96
2023-02-11T10:32:37.574Z,65.75
2023-02-11T10:36:05.593Z,64.97
2023-02-11T10:39:33.722Z,64.89
2023-02-11T10:43:01.395Z,65.41
2023-02-11T10:46:29.510Z,64.10
2023-02-11T10:49:57.611Z,62.52
2023-02-11T10:53:25.673Z,62.85
2023-02-11T10:56:53.522Z,61.84
2023-02-11T11:00:21.318Z,62.26
2023-02-11T11:03:49.451Z,62.50
2023-02-11T11:07:17.369Z,62.20
2023-02-11T11:10:45.229Z,62.02
2023-02-11T11:14:13.012Z,60.67
2023-02-11T11:17:41.258Z,59.63
2023-02-11T11:21:08.945Z,60.05
2023-02-11T11:24:36.962Z,60.08
2023-02-11T11:27:25.957Z,61.24
2023-02-11T11:30:54.523Z,61.66
2023-02-11T11:34:21.939Z,61.30
2023-02-11T11:37:49.854Z,59.78
2023-02-11T11:41:18.039Z,58.60
2023-02-11T11:44:46.922Z,58.90
2023-02-11T11:47:58.702Z,58.33
2023-02-11T11:51:26.868Z,58.33
2023-02-11T11:54:36.795Z,56.44
2023-02-11T11:58:04.691Z,56.06
2023-02-11T12:01:16.313Z,55.73
2023-02-11T12:04:26.689Z,56.63
2023-02-11T12:07:35.772Z,55.29
2023-02-11T12:11:03.574Z,54.94
2023-02-11T12:14:31.259Z,54.58
2023-02-11T12:17:59.436Z,53.64
2023-02-11T12:21:02.879Z,52.76
2023-02-11T12:24:30.812Z,52.38
2023-02-11T12:27:58.548Z,52.79
2023-02-11T12:31:26.440Z,51.90
2023-02-11T12:34:54.488Z,50.84
2023-02-11T12:38:22.594Z,51.19
2023-02-11T12:41:50.670Z,53.12
2023-02-11T12:45:18.457Z,53.32
2023-02-11T12:48:46.672Z,53.26
2023-02-11T12:52:14.764Z,53.59
2023-02-11T12:55:42.600Z,53.12
2023-02-11T12:58:47.868Z,52.85
2023-02-11T13:01:56.474Z,53.11
2023-02-11T13:05:06.487Z,53.39
2023-02-11T13:08:34.440Z,52.18
2023-02-11T13:11:46.105Z,51.76
2023-02-11T13:14:55.705Z,51.79
2023-02-11T13:18:23.472Z,51.99
2023-02-11T13:21:51.682Z,51.33
2023-02-11T13:25:19.557Z,51.41
2023-02-11T13:28:47.348Z,50.90
2023-02-11T13:32:15.668Z,50.05
2023-02-11T13:35:43.592Z,49.05
2023-02-11T13:39:11.400Z,48.89
2023-02-11T13:42:39.477Z,49.49
2023-02-11T13:46:07.651Z,48.83
2023-02-11T13:49:36.256Z,47.15
2023-02-11T13:52:24.500Z,47.00
2023-02-11T13:55:15.496Z,46.88
2023-02-11T13:58:14.480Z,46.37
2023-02-11T14:01:06.203Z,46.11
2023-02-11T14:03:54.881Z,45.35
2023-02-11T14:07:22.723Z,46.04
2023-02-11T14:10:50.950Z,46.15
2023-02-11T14:13:48.726Z,46.92
2023-02-11T14:16:44.580Z,47.72
2023-02-11T14:20:22.984Z,47.70
2023-02-11T14:23:51.974Z,48.16
2023-02-11T14:27:20.225Z,49.02
2023-02-11T14:30:49.266Z,49.20
2023-02-11T14:34:17.259Z,49.63
2023-02-11T14:37:46.247Z,49.74
2023-02-11T14:40:56.973Z,50.05
2023-02-11T14:44:04.913Z,50.40
2023-02-11T14:47:32.846Z,51.15
2023-02-11T14:51:01.046Z,51.37
2023-02-11T14:54:28.763Z,51.75
2023-02-11T14:58:00.435Z,52.17
2023-02-11T15:01:35.543Z,53.16
2023-02-11T15:04:36.942Z,53.18
2023-02-11T15:08:07.354Z,53.77
2023-02-11T15:11:16.861Z,54.11
2023-02-11T15:14:13.791Z,54.86
2023-02-11T15:17:42.192Z,55.00
2023-02-11T15:21:10.089Z,54.86
2023-02-11T15:24:38.208Z,55.19
2023-02-11T15:28:02.470Z,55.50
2023-02-11T15:31:34.559Z,54.46
2023-02-11T15:34:59.293Z,54.36
2023-02-11T15:38:08.312Z,54.52
2023-02-11T15:41:16.907Z,54.66
2023-02-11T15:44:25.153Z,55.19
2023-02-11T15:47:53.325Z,55.73
2023-02-11T15:51:02.174Z,56.02
2023-02-11T15:54:10.997Z,56.97
2023-02-11T15:57:38.839Z,57.09
2023-02-11T16:00:55.191Z,57.96
2023-02-11T16:04:24.514Z,59.15
2023-02-11T16:07:55.345Z,60.06
2023-02-11T16:11:28.841Z,59.95
2023-02-11T16:14:56.650Z,60.21
2023-02-11T16:18:12.748Z,61.15
2023-02-11T16:21:24.534Z,61.53
2023-02-11T16:24:33.714Z,61.52
2023-02-11T16:27:42.661Z,62.67
2023-02-11T16:31:10.999Z,62.97
2023-02-11T16:34:39.002Z,63.61
2023-02-11T16:38:07.489Z,64.09
2023-02-11T16:41:31.721Z,64.53
2023-02-11T16:44:59.427Z,64.77
2023-02-11T16:48:28.039Z,65.69
2023-02-11T16:51:36.294Z,66.20
2023-02-11T16:54:44.234Z,66.21
2023-02-11T16:58:12.261Z,67.08
2023-02-11T17:01:40.266Z,67.31
2023-02-11T17:04:49.102Z,66.92
2023-02-11T17:08:17.217Z,68.54
2023-02-11T17:11:45.513Z,68.92
2023-02-11T17:15:13.712Z,69.63
2023-02-11T17:18:41.743Z,69.71
2023-02-11T17:22:10.245Z,70.56
2023-02-11T17:25:26.755Z,70.82
2023-02-11T17:28:31.337Z,71.48
2023-02-11T17:31:59.740Z,72.20
2023-02-11T17:35:27.743Z,72.43
2023-02-11T17:38:55.597Z,72.74
2023-02-11T17:42:23.493Z,72.77
2023-02-11T17:45:51.501Z,73.18
2023-02-11T17:49:19.259Z,73.35
2023-02-11T17:52:47.419Z,73.38
2023-02-11T17:56:15.339Z,73.44
2023-02-11T17:59:23.769Z,74.16
2023-02-11T18:02:32.980Z,74.29
2023-02-11T18:06:01.365Z,74.25
2023-02-11T18:09:29.207Z,74.28
2023-02-11T18:12:37.776Z,74.12
2023-02-11T18:16:06.016Z,74.48
2023-02-11T18:19:33.812Z,74.43
2023-02-11T18:22:26.785Z,73.98
2023-02-11T18:25:54.904Z,74.17
2023-02-11T18:28:25.600Z,74.15
2023-02-11T18:31:34.383Z,74.35
2023-02-11T18:34:43.510Z,74.31
2023-02-11T18:38:11.830Z,74.17
2023-02-11T18:41:40.109Z,73.64
2023-02-11T18:45:08.013Z,73.20
2023-02-11T18:48:35.876Z,73.32
2023-02-11T18:52:03.864Z,73.45
2023-02-11T18:55:11.703Z,72.83
2023-02-11T18:58:40.212Z,72.92
2023-02-11T19:02:08.381Z,72.59
2023-02-11T19:05:36.705Z,72.47
2023-02-11T19:08:53.376Z,72.37
2023-02-11T19:12:21.100Z,71.02
2023-02-11T19:15:29.063Z,71.41
2023-02-11T19:18:45.010Z,70.70
2023-02-11T19:22:13.049Z,71.70
2023-02-11T19:25:41.205Z,71.54
2023-02-11T19:29:09.384Z,72.20
2023-02-11T19:32:17.230Z,71.91
2023-02-11T19:35:25.920Z,71.49
2023-02-11T19:38:54.052Z,71.61
2023-02-11T19:42:03.174Z,71.79
2023-02-11T19:45:18.769Z,71.89
2023-02-11T19:48:46.656Z,72.15
2023-02-11T19:52:14.499Z,72.65
2023-02-11T19:55:42.513Z,73.42
2023-02-11T19:59:10.691Z,73.48
2023-02-11T20:02:20.976Z,73.83
2023-02-11T20:05:36.682Z,73.96
2023-02-11T20:08:45.701Z,73.54
2023-02-11T20:11:57.809Z,73.67
2023-02-11T20:15:25.725Z,73.62
2023-02-11T20:18:53.726Z,73.32
2023-02-11T20:22:03.551Z,72.52
2023-02-11T20:25:31.350Z,72.72
2023-02-11T20:28:59.402Z,72.49
2023-02-11T20:32:27.458Z,72.82
2023-02-11T20:35:55.498Z,72.34
2023-02-11T20:39:23.289Z,72.30
2023-02-11T20:42:51.424Z,72.26
2023-02-11T20:46:19.231Z,72.50
2023-02-11T20:49:47.492Z,72.63
2023-02-11T20:53:15.957Z,73.13
2023-02-11T20:56:46.773Z,71.62
2023-02-11T21:00:12.516Z,71.78
2023-02-11T21:03:20.492Z,71.70
2023-02-11T21:06:32.218Z,71.54
2023-02-11T21:10:00.549Z,71.21
2023-02-11T21:13:28.530Z,70.92
2023-02-11T21:16:56.920Z,70.72
2023-02-11T21:20:05.803Z,71.00
2023-02-11T21:23:34.131Z,71.43
2023-02-11T21:27:02.349Z,72.02
2023-02-11T21:30:14.089Z,72.83
2023-02-11T21:33:42.090Z,73.05
2023-02-11T21:36:50.913Z,72.93
2023-02-11T21:40:20.443Z,72.31
2023-02-11T21:43:27.736Z,72.41
2023-02-11T21:46:18.071Z,72.42
2023-02-11T21:49:46.244Z,72.89
2023-02-11T21:53:14.750Z,72.78
2023-02-11T21:56:42.644Z,72.76
2023-02-11T21:59:51.881Z,72.69
2023-02-11T22:03:07.814Z,73.30
2023-02-11T22:06:35.970Z,73.18
2023-02-11T22:10:03.807Z,73.15
2023-02-11T22:13:15.646Z,73.30
2023-02-11T22:16:43.511Z,72.99
2023-02-11T22:19:53.157Z,73.12
2023-02-11T22:23:20.960Z,73.52
2023-02-11T22:26:48.820Z,73.38
2023-02-11T22:29:57.531Z,73.06
2023-02-11T22:33:25.758Z,72.79
2023-02-11T22:36:53.756Z,73.27
2023-02-11T22:40:21.912Z,73.34
2023-02-11T22:43:49.963Z,73.95
2023-02-11T22:47:17.961Z,73.67
2023-02-11T22:50:45.710Z,73.68
2023-02-11T22:53:54.304Z,73.83
2023-02-11T22:57:22.169Z,74.17
2023-02-11T23:00:50.212Z,74.11
2023-02-11T23:04:18.258Z,74.31
2023-02-11T23:07:27.926Z,74.64
2023-02-11T23:10:56.385Z,75.42
2023-02-11T23:14:08.219Z,75.48
2023-02-11T23:17:36.399Z,75.92
2023-02-11T23:21:04.474Z,75.60
2023-02-11T23:24:32.277Z,76.07
2023-02-11T23:27:22.057Z,75.78
2023-02-11T23:30:10.363Z,75.83
2023-02-11T23:33:38.183Z,76.62
2023-02-11T23:36:46.992Z,77.00
2023-02-11T23:40:15.139Z,77.25
2023-02-11T23:43:24.454Z,77.27
2023-02-11T23:46:51.396Z,77.63
2023-02-11T23:50:19.151Z,77.98
2023-02-11T23:53:47.301Z,78.57
2023-02-11T23:57:03.091Z,78.43
